LDLO/LSZ METAR and TAF weather

Enter ICAO airport designator
Station Type Date Time Source
LDLO METAR 2019/06/16 18:00 UTC NOAA

LDLO 161800Z 31008KT CAVOK 25/19 Q1011


Station Type Date Time Source
LDLO Decoded METAR 2019/06/16 18:00 UTC NOAA

Losinj Island, Croatia (LDLO) 44-33-57N 014-23-35E
Jun 16, 2019 - 02:00 PM EDT / 2019.06.16 1800 UTC
Wind: from the NW (310 degrees) at 9 MPH (8 KT):0
Visibility: greater than 7 mile(s):0
Temperature: 77 F (25 C)
Dew Point: 66 F (19 C)
Relative Humidity: 69%
Pressure (altimeter): 29.85 in. Hg (1011 hPa)
ob: LDLO 161800Z 31008KT CAVOK 25/19 Q1011
cycle: 18

Station Type Date Time Source
LDLO TAF 2019/06/16 19:15 UTC NOAA

TAF
AMD TAF
AMD LDLO 161912Z 1619/1712 CNL

Example: see airport list